createdAt,value
2018-08-22T00:00:21.545Z,1018.54
2018-08-22T00:01:21.546Z,1018.51
2018-08-22T00:02:21.101Z,1018.51
2018-08-22T00:03:21.545Z,1018.53
2018-08-22T00:04:20.685Z,1018.51
2018-08-22T00:05:21.551Z,1018.49
2018-08-22T00:06:20.607Z,1018.50
2018-08-22T00:07:21.105Z,1018.52
2018-08-22T00:08:20.605Z,1018.50
2018-08-22T00:09:20.530Z,1018.49
2018-08-22T00:10:21.046Z,1018.45
2018-08-22T00:11:20.468Z,1018.49
2018-08-22T00:12:20.439Z,1018.47
2018-08-22T00:13:20.458Z,1018.47
2018-08-22T00:14:20.390Z,1018.46
2018-08-22T00:15:21.053Z,1018.49
2018-08-22T00:16:20.328Z,1018.48
2018-08-22T00:17:21.054Z,1018.52
2018-08-22T00:18:20.612Z,1018.49
2018-08-22T00:19:21.049Z,1018.47
2018-08-22T00:20:20.220Z,1018.49
2018-08-22T00:21:21.056Z,1018.49
2018-08-22T00:22:20.641Z,1018.52
2018-08-22T00:23:20.133Z,1018.50
2018-08-22T00:24:21.051Z,1018.49
2018-08-22T00:25:20.614Z,1018.49
2018-08-22T00:26:20.057Z,1018.49
2018-08-22T00:27:20.023Z,1018.48
2018-08-22T00:28:20.114Z,1018.46
2018-08-22T00:29:20.008Z,1018.49
2018-08-22T00:30:20.553Z,1018.46
2018-08-22T00:31:20.108Z,1018.48
2018-08-22T00:32:20.550Z,1018.44
2018-08-22T00:33:20.552Z,1018.47
2018-08-22T00:34:19.832Z,1018.49
2018-08-22T00:35:20.555Z,1018.49
2018-08-22T00:36:19.825Z,1018.46
2018-08-22T00:37:19.748Z,1018.45
2018-08-22T00:38:19.717Z,1018.45
2018-08-22T00:39:20.555Z,1018.47
2018-08-22T00:40:20.554Z,1018.48
2018-08-22T00:41:19.679Z,1018.46
2018-08-22T00:42:20.552Z,1018.48
2018-08-22T00:43:20.107Z,1018.50
2018-08-22T00:44:19.556Z,1018.49
2018-08-22T00:45:19.523Z,1018.48
2018-08-22T00:46:19.605Z,1018.46
2018-08-22T00:47:19.606Z,1018.51
2018-08-22T00:48:20.054Z,1018.44
2018-08-22T00:49:19.422Z,1018.49
2018-08-22T00:50:19.395Z,1018.44
2018-08-22T00:51:19.400Z,1018.46
2018-08-22T00:52:19.612Z,1018.44
2018-08-22T00:53:20.058Z,1018.45
2018-08-22T00:54:20.054Z,1018.44
2018-08-22T00:55:20.072Z,1018.42
2018-08-22T00:56:19.620Z,1018.43
2018-08-22T00:57:19.246Z,1018.41
2018-08-22T00:58:20.055Z,1018.42
2018-08-22T00:59:19.229Z,1018.48
2018-08-22T01:00:20.062Z,1018.41
2018-08-22T01:01:19.080Z,1018.41
2018-08-22T01:02:19.135Z,1018.43
2018-08-22T01:03:19.555Z,1018.46
2018-08-22T01:04:18.994Z,1018.47
2018-08-22T01:05:18.970Z,1018.45
2018-08-22T01:06:18.959Z,1018.46
2018-08-22T01:07:18.963Z,1018.51
2018-08-22T01:08:19.559Z,1018.47
2018-08-22T01:09:19.560Z,1018.47
2018-08-22T01:10:19.555Z,1018.47
2018-08-22T01:11:18.858Z,1018.46
2018-08-22T01:12:19.116Z,1018.44
2018-08-22T01:13:18.746Z,1018.47
2018-08-22T01:14:18.722Z,1018.46
2018-08-22T01:15:19.557Z,1018.44
2018-08-22T01:16:18.659Z,1018.42
2018-08-22T01:17:19.117Z,1018.43
2018-08-22T01:18:19.599Z,1018.43
2018-08-22T01:19:19.561Z,1018.42
2018-08-22T01:20:18.548Z,1018.43
2018-08-22T01:21:18.525Z,1018.41
2018-08-22T01:22:18.539Z,1018.41
2018-08-22T01:23:18.462Z,1018.40
2018-08-22T01:24:19.069Z,1018.40
2018-08-22T01:25:18.412Z,1018.38
2018-08-22T01:26:18.383Z,1018.39
2018-08-22T01:27:18.612Z,1018.41
2018-08-22T01:28:19.059Z,1018.35
2018-08-22T01:29:18.296Z,1018.36
2018-08-22T01:30:19.060Z,1018.34
2018-08-22T01:31:18.242Z,1018.31
2018-08-22T01:32:18.252Z,1018.32
2018-08-22T01:33:19.067Z,1018.31
2018-08-22T01:34:18.211Z,1018.27
2018-08-22T01:35:18.135Z,1018.29
2018-08-22T01:36:19.067Z,1018.33
2018-08-22T01:37:19.070Z,1018.30
2018-08-22T01:38:18.047Z,1018.27
2018-08-22T01:39:18.115Z,1018.27
2018-08-22T01:40:18.564Z,1018.28
2018-08-22T01:41:17.960Z,1018.29
2018-08-22T01:42:18.561Z,1018.28
2018-08-22T01:43:17.943Z,1018.27
2018-08-22T01:44:17.915Z,1018.28
2018-08-22T01:45:17.851Z,1018.27
2018-08-22T01:46:18.565Z,1018.30
2018-08-22T01:47:18.564Z,1018.24
2018-08-22T01:48:18.565Z,1018.27
2018-08-22T01:49:18.111Z,1018.25
2018-08-22T01:50:17.754Z,1018.23
2018-08-22T01:51:18.562Z,1018.25
2018-08-22T01:52:18.564Z,1018.25
2018-08-22T01:53:17.628Z,1018.25
2018-08-22T01:54:18.112Z,1018.25
2018-08-22T01:55:18.563Z,1018.25
2018-08-22T01:56:17.543Z,1018.24
2018-08-22T01:57:17.513Z,1018.27
2018-08-22T01:58:18.068Z,1018.25
2018-08-22T01:59:17.501Z,1018.25
2018-08-22T02:00:17.474Z,1018.25
2018-08-22T02:01:18.073Z,1018.20
2018-08-22T02:02:18.064Z,1018.22
2018-08-22T02:03:17.350Z,1018.19
2018-08-22T02:04:17.368Z,1018.17
2018-08-22T02:05:18.064Z,1018.20
2018-08-22T02:06:18.072Z,1018.18
2018-08-22T02:07:17.238Z,1018.16
2018-08-22T02:08:18.071Z,1018.17
2018-08-22T02:09:17.226Z,1018.15
2018-08-22T02:10:17.170Z,1018.14
2018-08-22T02:11:18.069Z,1018.11
2018-08-22T02:12:18.066Z,1018.16
2018-08-22T02:13:17.567Z,1018.11
2018-08-22T02:14:17.082Z,1018.10
2018-08-22T02:15:17.019Z,1018.13
2018-08-22T02:16:17.570Z,1018.12
2018-08-22T02:17:16.952Z,1018.10
2018-08-22T02:18:16.932Z,1018.09
2018-08-22T02:19:17.131Z,1018.09
2018-08-22T02:20:16.869Z,1018.10
2018-08-22T02:21:16.844Z,1018.06
2018-08-22T02:22:16.858Z,1018.09
2018-08-22T02:23:17.567Z,1018.10
2018-08-22T02:24:16.898Z,1018.13
2018-08-22T02:25:17.647Z,1018.08
2018-08-22T02:26:17.612Z,1018.12
2018-08-22T02:27:16.674Z,1018.13
2018-08-22T02:28:17.595Z,1018.11
2018-08-22T02:29:16.663Z,1018.13
2018-08-22T02:30:17.571Z,1018.10
2018-08-22T02:31:16.565Z,1018.12
2018-08-22T02:32:16.535Z,1018.12
2018-08-22T02:33:16.509Z,1018.10
2018-08-22T02:34:16.635Z,1018.10
2018-08-22T02:35:17.073Z,1018.11
2018-08-22T02:36:17.071Z,1018.07
2018-08-22T02:37:17.075Z,1018.08
2018-08-22T02:38:16.378Z,1018.08
2018-08-22T02:39:16.390Z,1018.09
2018-08-22T02:40:17.073Z,1018.07
2018-08-22T02:41:16.284Z,1018.06
2018-08-22T02:42:17.090Z,1018.08
2018-08-22T02:43:16.266Z,1018.08
2018-08-22T02:44:16.201Z,1018.05
2018-08-22T02:45:17.075Z,1018.04
2018-08-22T02:46:16.208Z,1018.05
2018-08-22T02:47:17.076Z,1018.04
2018-08-22T02:48:16.099Z,1018.02
2018-08-22T02:49:16.064Z,1018.06
2018-08-22T02:50:16.577Z,1018.06
2018-08-22T02:51:16.128Z,1018.03
2018-08-22T02:52:15.974Z,1018.03
2018-08-22T02:53:15.949Z,1018.04
2018-08-22T02:54:16.133Z,1018.03
2018-08-22T02:55:16.125Z,1018.02
2018-08-22T02:56:15.887Z,1017.99
2018-08-22T02:57:15.875Z,1018.01
2018-08-22T02:58:16.589Z,1018.02
2018-08-22T02:59:15.781Z,1018.00
2018-08-22T03:00:16.129Z,1017.96
2018-08-22T03:01:15.725Z,1017.98
2018-08-22T03:02:16.577Z,1017.97
2018-08-22T03:03:15.669Z,1017.97
2018-08-22T03:04:15.698Z,1017.99
2018-08-22T03:05:16.580Z,1018.00
2018-08-22T03:06:16.580Z,1017.99
2018-08-22T03:07:15.558Z,1017.99
2018-08-22T03:08:15.529Z,1018.05
2018-08-22T03:09:15.555Z,1017.99
2018-08-22T03:10:15.476Z,1018.00
2018-08-22T03:11:16.081Z,1018.00
2018-08-22T03:12:16.078Z,1018.02
2018-08-22T03:13:15.434Z,1017.98
2018-08-22T03:14:15.361Z,1017.99
2018-08-22T03:15:16.078Z,1017.99
2018-08-22T03:16:16.082Z,1018.01
2018-08-22T03:17:16.077Z,1018.02
2018-08-22T03:18:15.296Z,1018.02
2018-08-22T03:19:15.628Z,1017.98
2018-08-22T03:20:16.080Z,1018.01
2018-08-22T03:21:16.079Z,1018.01
2018-08-22T03:22:15.185Z,1018.00
2018-08-22T03:23:16.083Z,1018.04
2018-08-22T03:24:15.085Z,1018.01
2018-08-22T03:25:15.057Z,1018.04
2018-08-22T03:26:15.115Z,1018.03
2018-08-22T03:27:15.041Z,1018.00
2018-08-22T03:28:15.018Z,1017.99
2018-08-22T03:29:14.947Z,1017.95
2018-08-22T03:30:15.582Z,1017.95
2018-08-22T03:31:14.890Z,1017.98
2018-08-22T03:32:14.865Z,1017.92
2018-08-22T03:33:14.881Z,1017.96
2018-08-22T03:34:14.818Z,1017.99
2018-08-22T03:35:14.777Z,1017.98
2018-08-22T03:36:15.599Z,1018.00
2018-08-22T03:37:15.582Z,1017.99
2018-08-22T03:38:15.137Z,1017.98
2018-08-22T03:39:14.670Z,1017.97
2018-08-22T03:40:15.582Z,1017.99
2018-08-22T03:41:15.582Z,1018.00
2018-08-22T03:42:15.101Z,1018.03
2018-08-22T03:43:14.642Z,1017.98
2018-08-22T03:44:14.572Z,1017.97
2018-08-22T03:45:14.502Z,1017.97
2018-08-22T03:46:15.090Z,1017.96
2018-08-22T03:47:15.086Z,1017.93
2018-08-22T03:48:15.083Z,1017.96
2018-08-22T03:49:14.442Z,1017.99
2018-08-22T03:50:14.364Z,1017.98
2018-08-22T03:51:15.094Z,1017.96
2018-08-22T03:52:14.305Z,1018.01
2018-08-22T03:53:14.283Z,1018.05
2018-08-22T03:54:14.300Z,1017.97
2018-08-22T03:55:14.641Z,1018.04
2018-08-22T03:56:15.152Z,1018.04
2018-08-22T03:57:14.179Z,1018.02
2018-08-22T03:58:15.095Z,1018.00
2018-08-22T03:59:14.167Z,1018.01
2018-08-22T04:00:14.102Z,1017.99
2018-08-22T04:01:14.593Z,1017.99
2018-08-22T04:02:14.031Z,1017.99
2018-08-22T04:03:14.591Z,1017.98
2018-08-22T04:04:14.141Z,1017.95
2018-08-22T04:05:14.155Z,1018.00
2018-08-22T04:06:13.930Z,1017.94
2018-08-22T04:07:14.600Z,1017.98
2018-08-22T04:08:13.865Z,1017.95
2018-08-22T04:09:13.839Z,1017.94
2018-08-22T04:10:13.857Z,1017.96
2018-08-22T04:11:13.782Z,1017.96
2018-08-22T04:12:13.797Z,1017.97
2018-08-22T04:13:14.589Z,1017.99
2018-08-22T04:14:13.703Z,1017.98
2018-08-22T04:15:14.155Z,1017.98
2018-08-22T04:16:14.141Z,1018.01
2018-08-22T04:17:14.145Z,1018.02
2018-08-22T04:18:14.088Z,1017.99
2018-08-22T04:19:14.089Z,1018.02
2018-08-22T04:20:14.089Z,1018.00
2018-08-22T04:21:13.563Z,1017.99
2018-08-22T04:22:13.525Z,1018.00
2018-08-22T04:23:13.480Z,1017.98
2018-08-22T04:24:14.091Z,1018.02
2018-08-22T04:25:13.396Z,1017.99
2018-08-22T04:26:13.371Z,1018.02
2018-08-22T04:27:13.385Z,1018.02
2018-08-22T04:28:13.312Z,1018.02
2018-08-22T04:29:13.289Z,1017.99
2018-08-22T04:30:14.092Z,1017.97
2018-08-22T04:31:13.231Z,1017.98
2018-08-22T04:32:13.246Z,1017.98
2018-08-22T04:33:13.216Z,1017.96
2018-08-22T04:34:13.150Z,1018.01
2018-08-22T04:35:13.118Z,1018.01
2018-08-22T04:36:13.593Z,1018.01
2018-08-22T04:37:13.092Z,1017.97
2018-08-22T04:38:13.599Z,1017.99
2018-08-22T04:39:13.596Z,1018.00
2018-08-22T04:40:13.593Z,1017.99
2018-08-22T04:41:13.592Z,1017.98
2018-08-22T04:42:12.973Z,1017.94
2018-08-22T04:43:13.501Z,1017.95
2018-08-22T04:44:12.911Z,1017.99
2018-08-22T04:45:13.594Z,1017.94
2018-08-22T04:46:13.594Z,1017.97
2018-08-22T04:47:13.602Z,1017.99
2018-08-22T04:48:13.204Z,1018.01
2018-08-22T04:49:12.800Z,1018.01
2018-08-22T04:50:13.611Z,1018.03
2018-08-22T04:51:12.685Z,1018.04
2018-08-22T04:52:12.683Z,1018.01
2018-08-22T04:53:13.650Z,1018.01
2018-08-22T04:54:12.647Z,1018.00
2018-08-22T04:55:13.094Z,1017.99
2018-08-22T04:56:13.097Z,1017.99
2018-08-22T04:57:12.522Z,1017.94
2018-08-22T04:58:12.491Z,1017.94
2018-08-22T04:59:12.507Z,1017.99
2018-08-22T05:00:12.436Z,1017.97
2018-08-22T05:01:13.102Z,1018.04
2018-08-22T05:02:13.096Z,1018.00
2018-08-22T05:03:12.377Z,1017.97
2018-08-22T05:04:12.658Z,1017.99
2018-08-22T05:05:13.098Z,1018.00
2018-08-22T05:06:13.101Z,1018.00
2018-08-22T05:07:12.246Z,1018.04
2018-08-22T05:08:13.098Z,1018.07
2018-08-22T05:09:12.241Z,1018.06
2018-08-22T05:10:13.098Z,1018.07
2018-08-22T05:11:12.140Z,1018.05
2018-08-22T05:12:12.113Z,1018.07
2018-08-22T05:13:12.693Z,1018.03
2018-08-22T05:14:12.102Z,1018.04
2018-08-22T05:15:12.157Z,1018.03
2018-08-22T05:16:12.608Z,1018.06
2018-08-22T05:17:11.977Z,1018.08
2018-08-22T05:18:11.952Z,1018.07
2018-08-22T05:19:11.924Z,1018.08
2018-08-22T05:20:11.944Z,1018.06
2018-08-22T05:21:11.877Z,1018.06
2018-08-22T05:22:11.885Z,1018.00
2018-08-22T05:23:12.628Z,1018.02
2018-08-22T05:24:11.806Z,1018.04
2018-08-22T05:25:11.761Z,1018.03
2018-08-22T05:26:11.782Z,1017.99
2018-08-22T05:27:12.604Z,1018.03
2018-08-22T05:28:11.684Z,1018.01
2018-08-22T05:29:11.676Z,1018.06
2018-08-22T05:30:11.674Z,1018.05
2018-08-22T05:31:11.648Z,1018.07
2018-08-22T05:32:11.579Z,1018.01
2018-08-22T05:33:11.557Z,1018.03
2018-08-22T05:34:11.531Z,1018.02
2018-08-22T05:35:11.548Z,1017.98
2018-08-22T05:36:11.524Z,1017.98
2018-08-22T05:37:11.445Z,1018.01
2018-08-22T05:38:11.416Z,1017.97
2018-08-22T05:39:11.394Z,1018.02
2018-08-22T05:40:11.372Z,1017.99
2018-08-22T05:41:11.378Z,1018.00
2018-08-22T05:42:11.323Z,1017.97
2018-08-22T05:43:11.328Z,1017.96
2018-08-22T05:44:11.257Z,1017.93
2018-08-22T05:45:11.233Z,1017.96
2018-08-22T05:46:11.281Z,1017.98
2018-08-22T05:47:11.177Z,1017.97
2018-08-22T05:48:11.150Z,1017.92
2018-08-22T05:49:11.201Z,1017.91
2018-08-22T05:50:11.634Z,1017.93
2018-08-22T05:51:11.071Z,1017.90
2018-08-22T05:52:11.046Z,1017.95
2018-08-22T05:53:11.027Z,1017.95
2018-08-22T05:54:11.038Z,1017.95
2018-08-22T05:55:10.967Z,1017.90
2018-08-22T05:56:10.943Z,1017.90
2018-08-22T05:57:10.918Z,1017.92
2018-08-22T05:58:10.889Z,1017.91
2018-08-22T05:59:10.910Z,1017.93
2018-08-22T06:00:10.884Z,1017.91
2018-08-22T06:01:10.812Z,1017.93
2018-08-22T06:02:10.786Z,1017.93
2018-08-22T06:03:10.846Z,1017.92
2018-08-22T06:04:10.737Z,1017.96
2018-08-22T06:05:10.711Z,1017.95
2018-08-22T06:06:10.684Z,1017.96
2018-08-22T06:07:10.663Z,1017.95
2018-08-22T06:08:10.680Z,1017.96
2018-08-22T06:09:10.697Z,1017.92
2018-08-22T06:10:10.582Z,1017.92
2018-08-22T06:11:10.605Z,1017.92
2018-08-22T06:12:10.527Z,1017.92
2018-08-22T06:13:10.504Z,1017.93
2018-08-22T06:14:11.112Z,1017.94
2018-08-22T06:15:10.508Z,1017.91
2018-08-22T06:16:10.427Z,1017.92
2018-08-22T06:17:10.403Z,1017.88
2018-08-22T06:18:10.393Z,1017.89
2018-08-22T06:19:10.393Z,1017.87
2018-08-22T06:20:11.130Z,1017.86
2018-08-22T06:21:10.344Z,1017.87
2018-08-22T06:22:10.275Z,1017.84
2018-08-22T06:23:10.247Z,1017.84
2018-08-22T06:24:11.116Z,1017.87
2018-08-22T06:25:10.197Z,1017.92
2018-08-22T06:26:10.195Z,1017.90
2018-08-22T06:27:11.114Z,1017.89
2018-08-22T06:28:10.160Z,1017.92
2018-08-22T06:29:10.100Z,1017.93
2018-08-22T06:30:10.072Z,1017.96
2018-08-22T06:31:10.044Z,1017.97
2018-08-22T06:32:10.019Z,1017.94
2018-08-22T06:33:09.996Z,1017.90
2018-08-22T06:34:10.031Z,1017.92
2018-08-22T06:35:09.957Z,1017.90
2018-08-22T06:36:09.928Z,1017.90
2018-08-22T06:37:09.896Z,1017.89
2018-08-22T06:38:09.878Z,1017.94
2018-08-22T06:39:09.892Z,1017.90
2018-08-22T06:40:09.865Z,1017.96
2018-08-22T06:41:09.797Z,1017.93
2018-08-22T06:42:09.777Z,1017.93
2018-08-22T06:43:09.753Z,1017.89
2018-08-22T06:44:09.783Z,1017.88
2018-08-22T06:45:09.744Z,1017.86
2018-08-22T06:46:09.675Z,1017.83
2018-08-22T06:47:09.646Z,1017.86
2018-08-22T06:48:09.667Z,1017.90
2018-08-22T06:49:09.625Z,1017.86
2018-08-22T06:50:09.629Z,1017.88
2018-08-22T06:51:09.592Z,1017.87
2018-08-22T06:52:09.527Z,1017.88
2018-08-22T06:53:09.504Z,1017.85
2018-08-22T06:54:09.478Z,1017.81
2018-08-22T06:55:09.500Z,1017.83
2018-08-22T06:56:09.424Z,1017.86
2018-08-22T06:57:09.446Z,1017.84
2018-08-22T06:58:09.377Z,1017.87
2018-08-22T06:59:09.354Z,1017.87
2018-08-22T07:00:09.370Z,1017.86
2018-08-22T07:01:09.348Z,1017.87
2018-08-22T07:02:10.122Z,1017.89
2018-08-22T07:03:09.250Z,1017.86
2018-08-22T07:04:09.230Z,1017.81
2018-08-22T07:05:09.206Z,1017.83
2018-08-22T07:06:09.226Z,1017.81
2018-08-22T07:07:09.154Z,1017.82
2018-08-22T07:08:09.139Z,1017.79
2018-08-22T07:09:09.106Z,1017.77
2018-08-22T07:10:09.086Z,1017.82
2018-08-22T07:11:09.100Z,1017.82
2018-08-22T07:12:09.040Z,1017.81
2018-08-22T07:13:09.012Z,1017.79
2018-08-22T07:14:09.002Z,1017.76
2018-08-22T07:15:08.963Z,1017.75
2018-08-22T07:16:08.980Z,1017.76
2018-08-22T07:17:08.964Z,1017.74
2018-08-22T07:18:08.892Z,1017.72
2018-08-22T07:19:08.868Z,1017.71
2018-08-22T07:20:08.850Z,1017.75
2018-08-22T07:21:08.819Z,1017.74
2018-08-22T07:22:08.840Z,1017.71
2018-08-22T07:23:09.628Z,1017.73
2018-08-22T07:24:08.744Z,1017.70
2018-08-22T07:25:08.722Z,1017.70
2018-08-22T07:26:08.697Z,1017.69
2018-08-22T07:27:09.186Z,1017.69
2018-08-22T07:28:08.667Z,1017.69
2018-08-22T07:29:08.673Z,1017.70
2018-08-22T07:30:08.677Z,1017.70
2018-08-22T07:31:08.581Z,1017.70
2018-08-22T07:32:09.127Z,1017.68
2018-08-22T07:33:08.532Z,1017.69
2018-08-22T07:34:08.569Z,1017.74
2018-08-22T07:35:08.484Z,1017.72
2018-08-22T07:36:08.461Z,1017.68
2018-08-22T07:37:08.437Z,1017.66
2018-08-22T07:38:08.418Z,1017.67
2018-08-22T07:39:08.434Z,1017.63
2018-08-22T07:40:08.367Z,1017.67
2018-08-22T07:41:08.345Z,1017.67
2018-08-22T07:42:08.323Z,1017.68
2018-08-22T07:43:09.137Z,1017.68
2018-08-22T07:44:08.317Z,1017.68
2018-08-22T07:45:09.135Z,1017.66
2018-08-22T07:46:08.227Z,1017.68
2018-08-22T07:47:08.210Z,1017.64
2018-08-22T07:48:08.180Z,1017.64
2018-08-22T07:49:08.711Z,1017.65
2018-08-22T07:50:08.161Z,1017.62
2018-08-22T07:51:08.108Z,1017.62
2018-08-22T07:52:08.089Z,1017.62
2018-08-22T07:53:08.114Z,1017.66
2018-08-22T07:54:08.053Z,1017.67
2018-08-22T07:55:08.067Z,1017.68
2018-08-22T07:56:07.998Z,1017.65
2018-08-22T07:57:08.218Z,1017.63
2018-08-22T07:58:08.636Z,1017.63
2018-08-22T07:59:07.924Z,1017.62
2018-08-22T08:00:07.988Z,1017.62
2018-08-22T08:01:07.880Z,1017.63
2018-08-22T08:02:07.862Z,1017.59
2018-08-22T08:03:08.638Z,1017.61
2018-08-22T08:04:07.861Z,1017.64
2018-08-22T08:05:08.195Z,1017.63
2018-08-22T08:06:08.638Z,1017.63
2018-08-22T08:07:08.644Z,1017.67
2018-08-22T08:08:07.725Z,1017.66
2018-08-22T08:09:07.695Z,1017.60
2018-08-22T08:10:07.717Z,1017.64
2018-08-22T08:11:07.652Z,1017.59
2018-08-22T08:12:07.629Z,1017.61
2018-08-22T08:13:07.607Z,1017.62
2018-08-22T08:14:07.586Z,1017.62
2018-08-22T08:15:07.605Z,1017.55
2018-08-22T08:16:07.542Z,1017.61
2018-08-22T08:17:07.547Z,1017.58
2018-08-22T08:18:07.493Z,1017.58
2018-08-22T08:19:07.497Z,1017.55
2018-08-22T08:20:07.474Z,1017.61
2018-08-22T08:21:07.428Z,1017.55
2018-08-22T08:22:07.405Z,1017.60
2018-08-22T08:23:07.380Z,1017.56
2018-08-22T08:24:07.364Z,1017.52
2018-08-22T08:25:07.363Z,1017.54
2018-08-22T08:26:07.351Z,1017.54
2018-08-22T08:27:07.305Z,1017.51
2018-08-22T08:28:07.270Z,1017.46
2018-08-22T08:29:07.254Z,1017.49
2018-08-22T08:30:07.698Z,1017.51
2018-08-22T08:31:07.202Z,1017.51
2018-08-22T08:32:07.182Z,1017.51
2018-08-22T08:33:07.206Z,1017.52
2018-08-22T08:34:07.137Z,1017.48
2018-08-22T08:35:07.117Z,1017.49
2018-08-22T08:36:07.139Z,1017.47
2018-08-22T08:37:07.072Z,1017.46
2018-08-22T08:38:07.094Z,1017.45
2018-08-22T08:39:07.040Z,1017.44
2018-08-22T08:40:07.645Z,1017.41
2018-08-22T08:41:06.982Z,1017.39
2018-08-22T08:42:06.967Z,1017.40
2018-08-22T08:43:07.209Z,1017.40
2018-08-22T08:44:06.920Z,1017.39
2018-08-22T08:45:06.897Z,1017.35
2018-08-22T08:46:06.877Z,1017.38
2018-08-22T08:47:06.907Z,1017.33
2018-08-22T08:48:06.878Z,1017.28
2018-08-22T08:49:06.810Z,1017.31
2018-08-22T08:50:07.207Z,1017.32
2018-08-22T08:51:06.766Z,1017.30
2018-08-22T08:52:06.750Z,1017.29
2018-08-22T08:53:06.722Z,1017.26
2018-08-22T08:54:06.734Z,1017.27
2018-08-22T08:55:06.722Z,1017.23
2018-08-22T08:56:07.650Z,1017.26
2018-08-22T08:57:06.712Z,1017.21
2018-08-22T08:58:06.618Z,1017.25
2018-08-22T08:59:06.597Z,1017.23
2018-08-22T09:00:06.708Z,1017.25
2018-08-22T09:01:06.644Z,1017.18
2018-08-22T09:02:07.168Z,1017.21
2018-08-22T09:03:06.580Z,1017.18
2018-08-22T09:04:07.228Z,1017.19
2018-08-22T09:05:06.647Z,1017.21
2018-08-22T09:06:07.102Z,1017.19
2018-08-22T09:07:07.155Z,1017.16
2018-08-22T09:08:06.411Z,1017.15
2018-08-22T09:09:06.388Z,1017.16
2018-08-22T09:10:06.412Z,1017.17
2018-08-22T09:11:06.335Z,1017.14
2018-08-22T09:12:06.341Z,1017.16
2018-08-22T09:13:06.340Z,1017.11
2018-08-22T09:14:06.276Z,1017.16
2018-08-22T09:15:06.302Z,1017.13
2018-08-22T09:16:06.230Z,1017.11
2018-08-22T09:17:06.232Z,1017.11
2018-08-22T09:18:06.186Z,1017.13
2018-08-22T09:19:06.177Z,1017.15
2018-08-22T09:20:06.187Z,1017.16
2018-08-22T09:21:06.246Z,1017.12
2018-08-22T09:22:06.106Z,1017.10
2018-08-22T09:23:06.107Z,1017.11
2018-08-22T09:24:06.104Z,1017.09
2018-08-22T09:25:06.280Z,1017.08
2018-08-22T09:26:06.050Z,1017.08
2018-08-22T09:27:06.042Z,1017.10
2018-08-22T09:28:06.097Z,1017.08
2018-08-22T09:29:05.995Z,1017.09
2018-08-22T09:30:05.985Z,1017.02
2018-08-22T09:31:05.954Z,1017.01
2018-08-22T09:32:05.946Z,1016.99
2018-08-22T09:33:05.923Z,1016.91
2018-08-22T09:34:05.856Z,1016.92
2018-08-22T09:35:05.834Z,1016.92
2018-08-22T09:36:05.808Z,1016.93
2018-08-22T09:37:06.219Z,1016.89
2018-08-22T09:38:05.767Z,1016.88
2018-08-22T09:39:05.745Z,1016.85
2018-08-22T09:40:05.800Z,1016.81
2018-08-22T09:41:05.711Z,1016.87
2018-08-22T09:42:05.750Z,1016.81
2018-08-22T09:43:05.712Z,1016.84
2018-08-22T09:44:05.646Z,1016.77
2018-08-22T09:45:05.622Z,1016.82
2018-08-22T09:46:05.600Z,1016.79
2018-08-22T09:47:05.627Z,1016.80
2018-08-22T09:48:05.605Z,1016.76
2018-08-22T09:49:06.173Z,1016.73
2018-08-22T09:50:05.560Z,1016.75
2018-08-22T09:51:05.555Z,1016.70
2018-08-22T09:52:05.480Z,1016.73
2018-08-22T09:53:05.736Z,1016.76
2018-08-22T09:54:05.450Z,1016.72
2018-08-22T09:55:05.410Z,1016.70
2018-08-22T09:56:05.393Z,1016.71
2018-08-22T09:57:05.398Z,1016.70
2018-08-22T09:58:05.422Z,1016.65
2018-08-22T09:59:05.341Z,1016.60
2018-08-22T10:00:05.342Z,1016.60
2018-08-22T10:01:05.310Z,1016.63
2018-08-22T10:02:05.269Z,1016.62
2018-08-22T10:03:05.297Z,1016.62
2018-08-22T10:04:05.225Z,1016.59
2018-08-22T10:05:05.209Z,1016.56
2018-08-22T10:06:05.184Z,1016.53
2018-08-22T10:07:05.177Z,1016.53
2018-08-22T10:08:05.206Z,1016.48
2018-08-22T10:09:05.122Z,1016.47
2018-08-22T10:10:05.174Z,1016.44
2018-08-22T10:11:05.082Z,1016.48
2018-08-22T10:12:05.120Z,1016.44
2018-08-22T10:13:05.078Z,1016.48
2018-08-22T10:14:05.064Z,1016.50
2018-08-22T10:15:04.998Z,1016.49
2018-08-22T10:16:04.980Z,1016.52
2018-08-22T10:17:04.962Z,1016.47
2018-08-22T10:18:04.941Z,1016.49
2018-08-22T10:19:04.970Z,1016.48
2018-08-22T10:20:04.897Z,1016.51
2018-08-22T10:21:04.879Z,1016.44
2018-08-22T10:22:04.877Z,1016.44
2018-08-22T10:23:04.842Z,1016.41
2018-08-22T10:24:04.862Z,1016.38
2018-08-22T10:25:04.794Z,1016.37
2018-08-22T10:26:04.781Z,1016.40
2018-08-22T10:27:04.833Z,1016.36
2018-08-22T10:28:05.678Z,1016.34
2018-08-22T10:29:04.804Z,1016.34
2018-08-22T10:30:05.584Z,1016.36
2018-08-22T10:31:05.590Z,1016.35
2018-08-22T10:32:04.748Z,1016.36
2018-08-22T10:33:04.748Z,1016.32
2018-08-22T10:34:04.666Z,1016.30
2018-08-22T10:35:04.628Z,1016.28
2018-08-22T10:36:04.609Z,1016.27
2018-08-22T10:37:04.558Z,1016.30
2018-08-22T10:38:04.531Z,1016.29
2018-08-22T10:39:04.568Z,1016.31
2018-08-22T10:40:04.493Z,1016.28
2018-08-22T10:41:05.181Z,1016.25
2018-08-22T10:42:04.454Z,1016.23
2018-08-22T10:43:04.430Z,1016.23
2018-08-22T10:44:04.476Z,1016.21
2018-08-22T10:45:04.390Z,1016.21
2018-08-22T10:46:04.370Z,1016.21
2018-08-22T10:47:04.356Z,1016.20
2018-08-22T10:48:04.333Z,1016.22
2018-08-22T10:49:04.357Z,1016.25
2018-08-22T10:50:04.346Z,1016.23
2018-08-22T10:51:04.268Z,1016.20
2018-08-22T10:52:04.251Z,1016.17
2018-08-22T10:53:04.245Z,1016.14
2018-08-22T10:54:04.333Z,1016.17
2018-08-22T10:55:04.234Z,1016.13
2018-08-22T10:56:04.169Z,1016.16
2018-08-22T10:57:04.151Z,1016.14
2018-08-22T10:58:04.141Z,1016.11
2018-08-22T10:59:04.238Z,1016.10
2018-08-22T11:00:04.093Z,1016.18
2018-08-22T11:01:04.112Z,1016.15
2018-08-22T11:02:04.162Z,1016.12
2018-08-22T11:03:04.029Z,1016.13
2018-08-22T11:04:04.028Z,1016.09
2018-08-22T11:05:03.994Z,1016.08
2018-08-22T11:06:04.016Z,1016.12
2018-08-22T11:07:03.949Z,1016.08
2018-08-22T11:08:04.690Z,1016.03
2018-08-22T11:09:03.909Z,1016.01
2018-08-22T11:10:03.924Z,1016.00
2018-08-22T11:11:03.918Z,1015.99
2018-08-22T11:12:03.855Z,1015.94
2018-08-22T11:13:03.832Z,1015.92
2018-08-22T11:14:03.811Z,1015.94
2018-08-22T11:15:03.803Z,1015.87
2018-08-22T11:16:03.892Z,1015.91
2018-08-22T11:17:03.758Z,1015.86
2018-08-22T11:18:03.734Z,1015.88
2018-08-22T11:19:03.713Z,1015.88
2018-08-22T11:20:03.688Z,1015.88
2018-08-22T11:21:03.720Z,1015.91
2018-08-22T11:22:03.652Z,1015.87
2018-08-22T11:23:03.673Z,1015.88
2018-08-22T11:24:03.607Z,1015.89
2018-08-22T11:25:03.588Z,1015.88
2018-08-22T11:26:03.569Z,1015.89
2018-08-22T11:27:07.650Z,1015.89
2018-08-22T11:28:03.531Z,1015.87
2018-08-22T11:29:03.510Z,1015.87
2018-08-22T11:30:03.489Z,1015.85
2018-08-22T11:31:03.470Z,1015.84
2018-08-22T11:32:03.507Z,1015.82
2018-08-22T11:33:03.433Z,1015.79
2018-08-22T11:34:03.413Z,1015.78
2018-08-22T11:35:03.393Z,1015.78
2018-08-22T11:36:03.370Z,1015.76
2018-08-22T11:37:03.395Z,1015.74
2018-08-22T11:38:03.337Z,1015.71
2018-08-22T11:39:03.369Z,1015.71
2018-08-22T11:40:03.295Z,1015.73
2018-08-22T11:41:03.279Z,1015.71
2018-08-22T11:42:03.255Z,1015.72
2018-08-22T11:43:03.284Z,1015.74
2018-08-22T11:44:03.218Z,1015.73
2018-08-22T11:45:03.196Z,1015.68
2018-08-22T11:46:03.175Z,1015.66
2018-08-22T11:47:03.158Z,1015.71
2018-08-22T11:48:03.181Z,1015.70
2018-08-22T11:49:03.115Z,1015.70
2018-08-22T11:50:03.260Z,1015.69
2018-08-22T11:51:03.076Z,1015.62
2018-08-22T11:52:03.700Z,1015.63
2018-08-22T11:53:03.039Z,1015.64
2018-08-22T11:54:03.066Z,1015.59
2018-08-22T11:55:02.997Z,1015.68
2018-08-22T11:56:02.996Z,1015.64
2018-08-22T11:57:02.969Z,1015.65
2018-08-22T11:58:02.941Z,1015.66
2018-08-22T11:59:02.973Z,1015.60
2018-08-22T12:00:02.904Z,1015.63
2018-08-22T12:01:02.887Z,1015.62
2018-08-22T12:02:02.883Z,1015.55
2018-08-22T12:03:02.846Z,1015.59
2018-08-22T12:04:02.871Z,1015.58
2018-08-22T12:05:02.811Z,1015.59